Time;durP1;ratioP1;P1;durP2;ratioP2;P2;SDS_P1;SDS_P2;PMS_P1;PMS_P2;Temp;Humidity;BMP_temperature;BMP_pressure;BME280_temperature;BME280_humidity;BME280_pressure;Samples;Min_cycle;Max_cycle;Signal;HPM_P1;HPM_P2
2023/01/25 00:00:41;;;;;;;4.27;4.07;;;;;;;2.13;100.00;146594.63;5072823;28;20212;-61
2023/01/25 00:03:10;;;;;;;3.97;3.77;;;;;;;2.47;100.00;146678.72;5072805;28;20196;-61
2023/01/25 00:05:36;;;;;;;4.80;4.50;;;;;;;2.38;100.00;146656.16;5072870;28;20623;-61
2023/01/25 00:08:04;;;;;;;4.40;4.10;;;;;;;2.50;100.00;146686.28;5055051;28;20192;-60
2023/01/25 00:10:30;;;;;;;4.63;4.43;;;;;;;2.48;100.00;146682.50;5072686;28;20187;-61
2023/01/25 00:12:57;;;;;;;4.17;3.87;;;;;;;2.51;100.00;146690.03;5072732;28;20701;-61
2023/01/25 00:15:24;;;;;;;4.17;3.97;;;;;;;2.53;100.00;146695.06;5072465;28;20192;-62
2023/01/25 00:17:51;;;;;;;4.50;4.20;;;;;;;2.49;100.00;146685.03;5072519;28;20201;-62
2023/01/25 00:20:19;;;;;;;3.67;3.47;;;;;;;2.73;100.00;146744.03;5072496;28;20215;-61
2023/01/25 00:22:46;;;;;;;3.83;3.63;;;;;;;2.76;100.00;146751.53;5072485;28;20555;-61
2023/01/25 00:25:13;;;;;;;3.80;3.60;;;;;;;2.81;100.00;146764.13;5072353;28;20635;-60
2023/01/25 00:27:40;;;;;;;3.70;3.50;;;;;;;2.85;100.00;146772.91;5072067;28;20184;-60
2023/01/25 00:30:08;;;;;;;3.90;3.67;;;;;;;2.83;100.00;146769.16;5072624;28;20198;-61
2023/01/25 00:32:49;;;;;;;4.10;3.80;;;;;;;2.74;100.00;146747.81;5072034;28;20234;-61
2023/01/25 00:35:16;;;;;;;4.40;4.13;;;;;;;2.81;100.00;146764.13;5071847;28;20232;-61
2023/01/25 00:37:48;;;;;;;4.23;4.03;;;;;;;2.84;100.00;146771.69;5072047;28;20184;-62
2023/01/25 00:40:16;;;;;;;3.90;3.70;;;;;;;2.73;100.00;146744.03;5071934;28;20209;-62
2023/01/25 00:42:43;;;;;;;4.10;3.90;;;;;;;2.84;100.00;146771.69;5071926;28;20191;-62
2023/01/25 00:45:12;;;;;;;3.80;3.60;;;;;;;2.90;100.00;146786.72;5072016;28;20591;-61
2023/01/25 00:47:39;;;;;;;4.50;4.20;;;;;;;2.84;100.00;146770.41;5071772;28;20231;-61
2023/01/25 00:50:07;;;;;;;3.90;3.70;;;;;;;2.94;100.00;146796.78;5071879;28;20191;-61
2023/01/25 00:52:34;;;;;;;3.70;3.50;;;;;;;2.83;100.00;146767.91;5071633;28;20184;-61
2023/01/25 00:55:02;;;;;;;4.03;3.83;;;;;;;2.63;100.00;146718.94;5071571;28;20184;-61
2023/01/25 00:57:29;;;;;;;4.37;3.97;;;;;;;2.64;100.00;146721.41;5071292;28;20180;-60
2023/01/25 00:59:56;;;;;;;4.50;4.20;;;;;;;2.77;100.00;146754.06;5071523;28;20216;-60
2023/01/25 01:02:23;;;;;;;4.50;4.30;;;;;;;2.78;100.00;146756.59;5071741;28;20192;-61
2023/01/25 01:04:50;;;;;;;4.90;4.47;;;;;;;2.38;100.00;146656.16;5071471;28;20195;-61
2023/01/25 01:07:16;;;;;;;5.63;5.23;;;;;;;2.62;100.00;146716.41;5071514;28;20195;-61
2023/01/25 01:09:43;;;;;;;5.00;4.63;;;;;;;2.55;100.00;146698.81;5071747;28;20508;-62
2023/01/25 01:12:11;;;;;;;4.73;4.33;;;;;;;2.45;100.00;146673.72;5053949;28;20181;-61
2023/01/25 01:14:39;;;;;;;4.97;4.67;;;;;;;2.42;100.00;146666.22;5071555;28;20207;-60
2023/01/25 01:17:05;;;;;;;4.93;4.63;;;;;;;2.24;100.00;146623.53;5071317;28;20181;-60
2023/01/25 01:19:32;;;;;;;5.47;5.07;;;;;;;2.28;100.00;146632.31;5071612;28;20189;-61
2023/01/25 01:21:59;;;;;;;5.30;5.00;;;;;;;2.22;100.00;146617.22;5071642;28;20627;-61
2023/01/25 01:24:26;;;;;;;4.37;4.17;;;;;;;2.15;100.00;146599.66;5071356;28;20325;-61
2023/01/25 01:26:53;;;;;;;5.70;5.40;;;;;;;2.16;100.00;146603.44;5071316;28;20279;-61
2023/01/25 01:29:21;;;;;;;6.00;5.50;;;;;;;2.15;100.00;146599.66;5071636;28;20536;-61
2023/01/25 01:31:51;;;;;;;5.63;5.10;;;;;;;2.12;100.00;146592.16;5071684;28;20245;-62
2023/01/25 01:34:18;;;;;;;5.20;4.90;;;;;;;2.06;100.00;146578.34;5071581;28;20197;-60
2023/01/25 01:36:45;;;;;;;5.47;5.20;;;;;;;2.09;100.00;146584.59;5071521;28;20195;-60
2023/01/25 01:39:12;;;;;;;5.20;4.90;;;;;;;2.02;100.00;146568.28;5071458;28;20193;-62
2023/01/25 01:41:39;;;;;;;5.13;4.83;;;;;;;2.08;100.00;146583.31;5071089;28;20227;-60
2023/01/25 01:44:06;;;;;;;5.27;4.97;;;;;;;1.94;100.00;146548.22;5071183;28;20192;-61
2023/01/25 01:46:36;;;;;;;6.13;5.77;;;;;;;1.96;100.00;146553.22;5071436;28;20185;-61
2023/01/25 01:49:06;;;;;;;5.70;5.40;;;;;;;1.83;100.00;146520.59;5071191;28;20176;-60
2023/01/25 01:51:45;;;;;;;6.27;5.77;;;;;;;1.80;100.00;146513.06;5071414;28;20670;-61
2023/01/25 01:54:16;;;;;;;6.17;5.67;;;;;;;1.76;100.00;146503.03;5071094;28;20219;-61
2023/01/25 01:56:48;;;;;;;6.87;6.37;;;;;;;1.75;100.00;146500.50;5071355;28;20207;-61
2023/01/25 01:59:16;;;;;;;6.20;5.70;;;;;;;1.63;100.00;146470.41;5070998;28;20205;-61
2023/01/25 02:01:45;;;;;;;6.67;6.27;;;;;;;1.64;100.00;146472.94;5070884;28;20205;-61
2023/01/25 02:04:14;;;;;;;6.73;6.33;;;;;;;1.62;100.00;146467.88;5071174;28;20192;-61
2023/01/25 02:06:47;;;;;;;7.43;6.90;;;;;;;1.75;100.00;146500.50;5071154;28;20181;-61
2023/01/25 02:09:18;;;;;;;6.43;6.03;;;;;;;1.67;100.00;146480.44;5071887;28;20246;-60
2023/01/25 02:11:46;;;;;;;6.10;5.70;;;;;;;1.71;100.00;146490.47;5075034;28;20537;-61
2023/01/25 02:14:15;;;;;;;7.23;6.83;;;;;;;1.60;100.00;146462.91;5074968;28;20552;-61
2023/01/25 02:16:42;;;;;;;7.77;7.13;;;;;;;1.75;100.00;146500.50;5074953;28;20185;-61
2023/01/25 02:19:15;;;;;;;7.07;6.67;;;;;;;1.70;100.00;146487.97;5074655;28;20200;-61
2023/01/25 02:21:46;;;;;;;9.07;7.23;;;;;;;1.81;100.00;146515.59;5074676;28;20204;-61
2023/01/25 02:24:20;;;;;;;12.43;7.13;;;;;;;2.02;100.00;146567.03;5074738;28;20644;-61
2023/01/25 02:26:48;;;;;;;7.43;6.87;;;;;;;1.87;100.00;146530.63;5074695;28;20503;-61
2023/01/25 02:29:18;;;;;;;8.20;7.47;;;;;;;1.83;100.00;146520.59;5074436;28;20189;-60
2023/01/25 02:31:45;;;;;;;7.67;7.10;;;;;;;1.94;100.00;146546.97;5074495;28;20184;-61
2023/01/25 02:34:12;;;;;;;8.33;7.73;;;;;;;1.93;100.00;146544.44;5074873;28;20200;-60
2023/01/25 02:36:39;;;;;;;8.73;7.93;;;;;;;1.95;100.00;146549.47;5074538;28;20586;-61
2023/01/25 02:39:10;;;;;;;9.03;8.13;;;;;;;1.98;100.00;146557.00;5074169;28;20428;-61
2023/01/25 02:41:39;;;;;;;8.57;7.83;;;;;;;1.90;100.00;146538.19;5074351;28;20212;-62
2023/01/25 02:44:11;;;;;;;8.43;7.63;;;;;;;2.12;100.00;146592.16;5074543;28;20205;-60
2023/01/25 02:46:39;;;;;;;8.57;7.77;;;;;;;2.04;100.00;146573.28;5074332;28;20189;-61
2023/01/25 02:49:08;;;;;;;10.00;9.17;;;;;;;1.93;100.00;146545.69;5074328;28;20190;-61
2023/01/25 02:51:37;;;;;;;9.27;8.30;;;;;;;1.86;100.00;146528.16;5074246;28;20181;-61
2023/01/25 02:54:07;;;;;;;13.60;8.57;;;;;;;1.96;100.00;146551.97;5074425;28;20656;-61
2023/01/25 02:56:33;;;;;;;8.70;8.07;;;;;;;1.85;100.00;146525.63;5074027;28;20214;-61
2023/01/25 02:59:04;;;;;;;9.10;8.33;;;;;;;1.91;100.00;146540.66;5073650;28;20181;-61
2023/01/25 03:01:32;;;;;;;9.67;8.90;;;;;;;1.97;100.00;146555.75;5073674;28;20215;-61
2023/01/25 03:03:59;;;;;;;9.47;8.47;;;;;;;2.01;100.00;146565.78;5073872;28;20551;-61
2023/01/25 03:06:26;;;;;;;8.43;7.83;;;;;;;2.01;100.00;146564.50;5073725;28;20595;-60
2023/01/25 03:08:53;;;;;;;12.27;8.60;;;;;;;2.01;100.00;146564.50;5073699;28;20185;-61
2023/01/25 03:11:20;;;;;;;9.73;8.90;;;;;;;2.04;100.00;146573.28;5073671;28;20192;-60
2023/01/25 03:13:47;;;;;;;9.33;8.63;;;;;;;2.11;100.00;146589.63;5073713;28;20188;-61
2023/01/25 03:16:14;;;;;;;10.07;9.10;;;;;;;2.21;100.00;146614.69;5073539;28;20189;-62
2023/01/25 03:18:43;;;;;;;10.97;8.87;;;;;;;2.21;100.00;146614.69;5073624;28;20204;-61
2023/01/25 03:21:13;;;;;;;9.13;8.33;;;;;;;2.23;100.00;146619.75;5073349;28;20216;-60
2023/01/25 03:23:40;;;;;;;10.33;8.50;;;;;;;2.17;100.00;146604.66;5073749;28;20197;-61
2023/01/25 03:26:10;;;;;;;10.90;8.60;;;;;;;2.09;100.00;146585.84;5073685;28;20618;-61
2023/01/25 03:28:37;;;;;;;9.37;8.67;;;;;;;2.04;100.00;146573.28;5073864;28;20256;-61
2023/01/25 03:31:04;;;;;;;10.53;9.37;;;;;;;1.89;100.00;146534.41;5073508;28;20548;-61
2023/01/25 03:33:31;;;;;;;9.37;8.47;;;;;;;1.98;100.00;146557.00;5073551;28;20208;-61
2023/01/25 03:36:00;;;;;;;10.63;8.93;;;;;;;1.87;100.00;146530.63;5073131;28;20236;-61
2023/01/25 03:38:27;;;;;;;11.67;8.87;;;;;;;1.76;100.00;146503.03;5073164;28;20228;-60
2023/01/25 03:40:55;;;;;;;10.13;9.07;;;;;;;1.88;100.00;146533.13;5073234;28;20208;-61
2023/01/25 03:43:22;;;;;;;10.70;9.70;;;;;;;1.90;100.00;146538.19;5073241;28;20739;-61
2023/01/25 03:45:52;;;;;;;11.57;9.80;;;;;;;1.92;100.00;146541.91;5073323;28;20192;-62
2023/01/25 03:48:22;;;;;;;10.30;9.30;;;;;;;1.76;100.00;146503.03;5072935;28;20192;-61
2023/01/25 03:50:50;;;;;;;11.27;10.10;;;;;;;1.84;100.00;146523.09;5073201;28;20553;-61
2023/01/25 03:53:28;;;;;;;11.03;9.70;;;;;;;1.91;100.00;146540.66;5072767;28;20231;-60
2023/01/25 03:55:56;;;;;;;10.73;9.57;;;;;;;1.90;100.00;146536.94;5072632;28;20193;-60
2023/01/25 03:58:23;;;;;;;12.70;10.30;;;;;;;1.85;100.00;146525.63;5072588;28;20185;-61
2023/01/25 04:00:50;;;;;;;13.63;9.63;;;;;;;2.01;100.00;146564.50;5072568;28;20216;-61
2023/01/25 04:03:18;;;;;;;12.50;10.17;;;;;;;1.87;100.00;146529.41;5072876;28;20598;-61
2023/01/25 04:05:46;;;;;;;14.20;10.03;;;;;;;1.97;100.00;146555.75;5072361;28;20184;-61
2023/01/25 04:08:13;;;;;;;13.20;10.17;;;;;;;1.77;100.00;146505.56;5072433;28;20185;-61
2023/01/25 04:10:41;;;;;;;14.70;11.23;;;;;;;2.00;100.00;146563.25;5072615;28;20191;-61
2023/01/25 04:13:08;;;;;;;14.80;9.87;;;;;;;1.91;100.00;146540.66;5072486;28;20231;-61
2023/01/25 04:15:35;;;;;;;12.00;10.70;;;;;;;1.82;100.00;146518.13;5072349;28;20191;-61
2023/01/25 04:18:02;;;;;;;12.53;10.53;;;;;;;1.89;100.00;146534.41;5072472;28;20617;-60
2023/01/25 04:20:29;;;;;;;12.70;10.90;;;;;;;1.95;100.00;146550.75;5072131;28;20188;-61
2023/01/25 04:22:56;;;;;;;11.70;10.50;;;;;;;2.07;100.00;146579.59;5072066;28;20275;-60
2023/01/25 04:25:23;;;;;;;14.20;10.90;;;;;;;1.95;100.00;146550.75;5072431;28;20184;-61
2023/01/25 04:27:51;;;;;;;11.53;10.27;;;;;;;1.95;100.00;146550.75;5072218;28;20212;-61
2023/01/25 04:30:18;;;;;;;12.63;10.87;;;;;;;1.92;100.00;146541.91;5072109;28;20191;-61
2023/01/25 04:32:46;;;;;;;13.40;9.90;;;;;;;1.98;100.00;146558.25;5071901;28;20528;-61
2023/01/25 04:35:13;;;;;;;11.80;10.60;;;;;;;1.96;100.00;146553.22;5071991;28;20329;-61
2023/01/25 04:37:39;;;;;;;12.47;10.57;;;;;;;1.78;100.00;146509.28;5071888;28;20199;-61
2023/01/25 04:40:08;;;;;;;12.17;9.67;;;;;;;1.90;100.00;146536.94;5072230;28;20196;-62
2023/01/25 04:42:35;;;;;;;11.20;10.10;;;;;;;1.97;100.00;146555.75;5071726;28;20205;-61
2023/01/25 04:45:03;;;;;;;11.87;10.17;;;;;;;1.98;100.00;146558.25;5072170;28;20192;-61
2023/01/25 04:47:30;;;;;;;10.50;9.07;;;;;;;1.98;100.00;146557.00;5072035;28;20563;-61
2023/01/25 04:49:57;;;;;;;11.77;8.70;;;;;;;1.96;100.00;146553.22;5071689;28;20189;-62
2023/01/25 04:52:24;;;;;;;9.60;8.60;;;;;;;2.05;100.00;146574.56;5071971;28;20181;-60
2023/01/25 04:54:51;;;;;;;11.50;8.73;;;;;;;2.01;100.00;146565.78;5072075;28;20188;-60
2023/01/25 04:57:18;;;;;;;9.60;8.70;;;;;;;1.92;100.00;146541.91;5072004;28;20207;-61
2023/01/25 04:59:44;;;;;;;9.03;8.20;;;;;;;1.85;100.00;146525.63;5072050;28;20648;-61
2023/01/25 05:02:13;;;;;;;9.53;8.67;;;;;;;1.99;100.00;146560.78;5071458;28;20205;-61
2023/01/25 05:04:40;;;;;;;9.17;8.30;;;;;;;2.02;100.00;146567.03;5071796;28;20189;-61
2023/01/25 05:07:07;;;;;;;8.83;8.17;;;;;;;1.89;100.00;146535.66;5071526;28;20256;-61
2023/01/25 05:09:34;;;;;;;8.37;7.80;;;;;;;1.83;100.00;146520.59;5071739;28;20654;-61
2023/01/25 05:12:01;;;;;;;8.80;8.00;;;;;;;1.85;100.00;146525.63;5071763;28;20705;-61
2023/01/25 05:14:27;;;;;;;8.90;8.00;;;;;;;2.01;100.00;146564.50;5071652;28;20643;-61
2023/01/25 05:16:54;;;;;;;8.37;7.67;;;;;;;1.84;100.00;146523.09;5071416;28;20181;-61
2023/01/25 05:19:22;;;;;;;9.40;8.53;;;;;;;1.95;100.00;146549.47;5071553;28;20184;-61
2023/01/25 05:21:58;;;;;;;9.40;8.47;;;;;;;1.81;100.00;146515.59;5071248;28;20209;-62
2023/01/25 05:24:26;;;;;;;7.57;6.97;;;;;;;1.95;100.00;146550.75;5071542;28;20279;-60
2023/01/25 05:27:02;;;;;;;8.03;7.30;;;;;;;1.88;100.00;146533.13;5071656;28;20195;-63
2023/01/25 05:29:31;;;;;;;7.30;6.70;;;;;;;1.94;100.00;146546.97;5071365;28;20549;-60
2023/01/25 05:31:58;;;;;;;8.17;7.37;;;;;;;1.91;100.00;146539.44;5071349;28;20195;-61
2023/01/25 05:34:26;;;;;;;7.30;6.80;;;;;;;1.93;100.00;146544.44;5071674;28;20599;-61
2023/01/25 05:36:54;;;;;;;7.43;6.93;;;;;;;1.92;100.00;146541.91;5071499;28;20184;-62
2023/01/25 05:39:21;;;;;;;6.70;6.23;;;;;;;1.94;100.00;146548.22;5071384;28;20685;-62
2023/01/25 05:41:47;;;;;;;7.00;6.50;;;;;;;1.80;100.00;146514.34;5071060;28;20205;-61
2023/01/25 05:44:14;;;;;;;7.23;6.57;;;;;;;1.76;100.00;141790.34;5072609;28;20185;-62
2023/01/25 05:46:42;;;;;;;6.87;6.37;;;;;;;1.77;100.00;133847.06;5075497;28;20198;-60
2023/01/25 05:49:09;;;;;;;6.23;5.83;;;;;;;1.61;100.00;129440.16;5075206;28;20188;-62
2023/01/25 05:51:38;;;;;;;7.13;6.60;;;;;;;1.73;100.00;128153.19;5075322;28;20635;-61
2023/01/25 05:54:06;;;;;;;6.63;6.00;;;;;;;1.70;100.00;129440.75;5075394;28;20185;-61
2023/01/25 05:56:33;;;;;;;6.77;6.27;;;;;;;1.76;100.00;129437.63;5075060;28;20185;-61
2023/01/25 05:59:01;;;;;;;7.17;6.67;;;;;;;1.77;100.00;125576.91;5057249;28;20199;-61
2023/01/25 06:01:28;;;;;;;7.57;7.07;;;;;;;1.72;100.00;121840.34;5057379;28;20232;-62
2023/01/25 06:03:56;;;;;;;7.50;6.90;;;;;;;1.70;100.00;119013.91;5075044;28;20231;-61
2023/01/25 06:06:23;;;;;;;7.73;7.03;;;;;;;1.73;100.00;117475.97;5074762;28;20199;-61
2023/01/25 06:08:51;;;;;;;8.90;8.10;;;;;;;1.86;100.00;118551.06;5074861;28;20231;-61
2023/01/25 06:11:21;;;;;;;6.90;6.30;;;;;;;1.81;100.00;121112.84;5075123;28;20244;-60
2023/01/25 06:13:49;;;;;;;6.93;6.40;;;;;;;1.75;100.00;120581.69;5074629;28;20181;-60
2023/01/25 06:16:16;;;;;;;8.13;6.87;;;;;;;1.75;100.00;117665.97;5074796;28;20275;-60
2023/01/25 06:18:44;;;;;;;7.43;6.93;;;;;;;1.77;100.00;115948.16;5074469;28;20195;-61
2023/01/25 06:21:11;;;;;;;8.43;7.70;;;;;;;1.71;100.00;114340.06;5074998;28;20185;-61
2023/01/25 06:23:38;;;;;;;8.50;7.87;;;;;;;1.74;100.00;112473.22;5074779;28;20529;-61
2023/01/25 06:26:07;;;;;;;8.60;7.70;;;;;;;1.62;100.00;109217.34;5074536;28;20215;-61
2023/01/25 06:28:35;;;;;;;8.60;7.90;;;;;;;1.77;100.00;108446.56;5074321;28;20548;-59
2023/01/25 06:31:07;;;;;;;9.57;8.20;;;;;;;1.56;100.00;106206.78;5074462;28;20650;-61
2023/01/25 06:33:35;;;;;;;8.63;8.03;;;;;;;1.60;100.00;100453.38;5074853;28;20280;-60
2023/01/25 06:36:03;;;;;;;9.63;8.83;;;;;;;1.73;100.00;97335.38;5074164;28;20239;-61
2023/01/25 06:38:31;;;;;;;9.30;8.50;;;;;;;1.81;100.00;94014.22;5074398;28;20192;-60
2023/01/25 06:41:02;;;;;;;9.40;8.50;;;;;;;1.75;100.00;95424.38;5074202;28;20257;-60
2023/01/25 06:43:31;;;;;;;9.63;8.73;;;;;;;1.86;100.00;95419.66;5074160;28;20201;-60
2023/01/25 06:45:59;;;;;;;8.20;7.40;;;;;;;1.64;100.00;95745.53;5074450;28;20227;-60
2023/01/25 06:48:26;;;;;;;8.67;7.90;;;;;;;1.88;100.00;94014.56;5074143;28;20613;-60
2023/01/25 06:50:58;;;;;;;8.97;8.23;;;;;;;1.84;100.00;93254.81;5074329;28;20654;-61
2023/01/25 06:53:27;;;;;;;9.57;8.60;;;;;;;1.75;100.00;91442.09;5073628;28;20187;-60
2023/01/25 06:55:58;;;;;;;10.17;9.20;;;;;;;1.73;100.00;88459.16;5073229;28;20181;-61
2023/01/25 06:58:26;;;;;;;11.30;10.17;;;;;;;1.81;100.00;86983.47;5073824;28;20184;-61
2023/01/25 07:00:54;;;;;;;11.40;10.23;;;;;;;1.89;100.00;84449.53;5073417;28;20184;-60
2023/01/25 07:03:21;;;;;;;11.93;10.20;;;;;;;1.94;100.00;81814.94;5073265;28;20212;-61
2023/01/25 07:05:49;;;;;;;10.57;8.67;;;;;;;1.86;100.00;78914.72;5073422;28;20238;-61
2023/01/25 07:08:20;;;;;;;11.03;9.80;;;;;;;1.92;100.00;78423.91;5073481;28;20193;-61
2023/01/25 07:10:53;;;;;;;10.30;9.30;;;;;;;1.80;100.00;78154.59;5073334;28;20280;-61
2023/01/25 07:13:20;;;;;;;10.90;9.57;;;;;;;1.79;100.00;75939.06;5073635;28;20203;-60
2023/01/25 07:15:55;;;;;;;10.20;9.13;;;;;;;1.93;100.00;75534.44;5066376;28;20208;-60
2023/01/25 07:18:23;;;;;;;13.20;10.40;;;;;;;1.94;100.00;73889.56;5069413;28;20207;-60
2023/01/25 07:20:50;;;;;;;11.50;10.50;;;;;;;2.02;100.00;76432.66;5073173;28;20181;-60
2023/01/25 07:23:17;;;;;;;11.63;9.87;;;;;;;1.94;100.00;78550.09;5073076;28;20216;-60
2023/01/25 07:25:45;;;;;;;10.70;9.77;;;;;;;2.10;100.00;78876.78;5073408;28;20703;-61
2023/01/25 07:28:12;;;;;;;11.60;9.60;;;;;;;2.12;100.00;80486.38;5073078;28;20189;-60
2023/01/25 07:30:40;;;;;;;11.27;10.17;;;;;;;2.19;100.00;80766.03;5071248;28;20196;-61
2023/01/25 07:33:08;;;;;;;10.47;9.20;;;;;;;2.30;100.00;82708.78;5052950;28;20202;-61
2023/01/25 07:35:36;;;;;;;11.77;10.60;;;;;;;2.41;100.00;85578.06;5057319;28;20231;-62
2023/01/25 07:38:03;;;;;;;13.10;9.80;;;;;;;2.34;100.00;89504.81;5060899;28;20205;-61
2023/01/25 07:40:33;;;;;;;10.93;9.70;;;;;;;2.44;100.00;89091.91;5063161;28;20189;-62
2023/01/25 07:43:00;;;;;;;10.67;9.17;;;;;;;2.36;100.00;94020.44;5060636;28;20209;-61
2023/01/25 07:45:29;;;;;;;9.30;8.67;;;;;;;2.42;100.00;97433.94;5073274;28;20277;-61
2023/01/25 07:47:57;;;;;;;11.00;8.40;;;;;;;2.36;100.00;104055.31;5065270;28;20236;-62
2023/01/25 07:50:26;;;;;;;9.77;8.90;;;;;;;2.52;100.00;105665.59;5065472;28;20188;-61
2023/01/25 07:52:53;;;;;;;9.27;8.47;;;;;;;2.57;100.00;107603.94;5071422;28;20195;-62
2023/01/25 07:55:20;;;;;;;8.93;8.33;;;;;;;2.59;100.00;115740.47;5065294;28;20659;-61
2023/01/25 07:57:47;;;;;;;10.13;9.20;;;;;;;2.70;100.00;127323.66;5070428;28;20210;-61
2023/01/25 08:00:14;;;;;;;13.60;9.03;;;;;;;2.76;100.00;130541.88;5072458;28;20211;-62
2023/01/25 08:02:42;;;;;;;8.60;7.90;;;;;;;2.80;100.00;135511.94;5064393;28;20211;-60
2023/01/25 08:05:11;;;;;;;7.53;7.00;;;;;;;2.74;100.00;142892.00;5068097;28;20290;-61
2023/01/25 08:07:39;;;;;;;8.03;7.27;;;;;;;2.85;100.00;146774.16;5066047;28;20668;-61
2023/01/25 08:10:07;;;;;;;7.43;6.80;;;;;;;2.86;100.00;146776.69;5052607;28;20197;-62
2023/01/25 08:12:34;;;;;;;7.53;7.03;;;;;;;2.83;100.00;146769.16;5052386;28;20185;-60
2023/01/25 08:15:01;;;;;;;8.77;7.63;;;;;;;2.97;100.00;146803.06;5052322;28;20192;-61
2023/01/25 08:17:31;;;;;;;7.90;7.30;;;;;;;3.09;100.00;146833.22;5057183;28;20671;-61
2023/01/25 08:19:58;;;;;;;10.50;7.30;;;;;;;3.14;100.00;146845.78;5072155;28;20696;-62
2023/01/25 08:22:25;;;;;;;7.67;7.20;;;;;;;2.85;100.00;146774.16;5056981;28;20674;-62
2023/01/25 08:24:55;;;;;;;10.53;7.93;;;;;;;3.17;100.00;146853.31;5052399;28;20185;-61
2023/01/25 08:27:22;;;;;;;7.53;6.83;;;;;;;3.21;100.00;146864.63;5068695;28;20586;-61
2023/01/25 08:29:52;;;;;;;7.17;6.57;;;;;;;3.31;100.00;146888.47;5063156;28;20206;-61
2023/01/25 08:32:19;;;;;;;6.73;5.93;;;;;;;3.21;100.00;146864.63;5072304;28;20608;-60
2023/01/25 08:34:47;;;;;;;6.93;6.43;;;;;;;3.13;100.00;146843.28;5071978;28;20236;-61
2023/01/25 08:37:13;;;;;;;7.03;6.50;;;;;;;3.14;100.00;146845.78;5067878;28;20541;-60
2023/01/25 08:39:40;;;;;;;7.40;6.90;;;;;;;3.25;100.00;146872.16;5060335;28;20199;-61
2023/01/25 08:42:08;;;;;;;6.67;6.27;;;;;;;3.07;100.00;146828.16;5052142;28;20718;-60
2023/01/25 08:44:35;;;;;;;6.70;6.10;;;;;;;3.19;100.00;146859.56;5051494;28;20197;-62
2023/01/25 08:47:02;;;;;;;11.33;6.43;;;;;;;3.27;100.00;146878.41;5065625;28;20575;-60
2023/01/25 08:49:29;;;;;;;6.27;5.87;;;;;;;3.21;100.00;146864.63;5064208;28;20203;-61
2023/01/25 08:51:57;;;;;;;12.83;6.90;;;;;;;3.20;100.00;146860.84;5070480;28;20283;-62
2023/01/25 08:54:24;;;;;;;6.27;5.87;;;;;;;3.37;100.00;146902.28;5071649;28;20641;-61
2023/01/25 08:56:50;;;;;;;6.87;6.47;;;;;;;3.25;100.00;146872.16;5071819;28;20643;-61
2023/01/25 08:59:20;;;;;;;6.23;5.90;;;;;;;3.42;100.00;146916.13;5064863;28;20656;-61
2023/01/25 09:01:47;;;;;;;7.93;5.90;;;;;;;3.42;100.00;146914.88;5066723;28;20201;-62
2023/01/25 09:04:14;;;;;;;6.50;5.73;;;;;;;3.50;100.00;146934.97;5053830;28;20654;-61
2023/01/25 09:06:41;;;;;;;6.43;6.03;;;;;;;3.56;100.00;146951.31;5071380;28;20192;-60
2023/01/25 09:09:08;;;;;;;6.77;6.10;;;;;;;3.47;100.00;146927.44;5055914;28;20211;-61
2023/01/25 09:11:37;;;;;;;6.17;5.77;;;;;;;3.43;100.00;146917.38;5066478;28;20190;-62
2023/01/25 09:14:04;;;;;;;10.10;5.60;;;;;;;3.59;100.00;146957.59;5051284;28;20189;-62
2023/01/25 09:16:32;;;;;;;5.77;5.37;;;;;;;3.66;100.00;146976.44;5066455;28;20201;-61
2023/01/25 09:19:02;;;;;;;5.60;5.30;;;;;;;3.76;100.00;147000.31;5051259;28;20209;-63
2023/01/25 09:21:29;;;;;;;6.67;6.03;;;;;;;3.79;100.00;147006.59;5064034;28;20228;-60
2023/01/25 09:23:56;;;;;;;6.47;5.80;;;;;;;3.68;100.00;146980.22;5051120;28;20209;-60
2023/01/25 09:26:23;;;;;;;6.07;5.73;;;;;;;3.83;100.00;147016.63;5060303;28;20673;-60
2023/01/25 09:28:52;;;;;;;9.13;5.47;;;;;;;3.68;100.00;146980.22;5071425;28;20220;-60
2023/01/25 09:31:19;;;;;;;6.13;5.73;;;;;;;3.77;100.00;147002.84;5071117;28;20619;-61
2023/01/25 09:33:48;;;;;;;6.33;5.87;;;;;;;3.51;100.00;146937.50;5070787;28;20204;-61
2023/01/25 09:36:14;;;;;;;7.07;6.57;;;;;;;3.54;100.00;146945.00;5070277;28;20733;-61
2023/01/25 09:38:41;;;;;;;6.70;6.20;;;;;;;3.52;100.00;146940.00;5069189;28;20196;-61
2023/01/25 09:41:23;;;;;;;6.13;5.83;;;;;;;3.53;100.00;146942.50;5070878;28;20191;-61
2023/01/25 09:44:08;;;;;;;7.13;6.37;;;;;;;3.58;100.00;146956.34;5069676;28;20339;-61
2023/01/25 09:46:41;;;;;;;8.90;5.87;;;;;;;3.61;100.00;146963.84;5069555;28;20200;-61
2023/01/25 09:49:23;;;;;;;7.30;6.70;;;;;;;3.94;100.00;147044.31;5070715;28;20193;-61
2023/01/25 09:52:12;;;;;;;7.97;6.27;;;;;;;3.82;100.00;147015.38;5070831;28;20197;-62
2023/01/25 09:54:41;;;;;;;6.40;5.80;;;;;;;3.86;100.00;147025.44;5070818;28;20191;-61
2023/01/25 09:57:15;;;;;;;6.20;5.80;;;;;;;3.95;100.00;147048.06;5070393;28;20276;-61
2023/01/25 09:59:44;;;;;;;6.47;5.93;;;;;;;3.94;100.00;147044.31;5070762;28;20181;-61
2023/01/25 10:02:25;;;;;;;6.53;5.93;;;;;;;4.16;100.00;147098.38;5070567;28;20181;-62
2023/01/25 10:05:02;;;;;;;6.77;6.23;;;;;;;4.13;100.00;147093.34;5070589;28;20187;-62
2023/01/25 10:07:49;;;;;;;6.97;6.37;;;;;;;4.10;100.00;147085.81;5071108;28;20189;-62
2023/01/25 10:10:18;;;;;;;6.87;6.43;;;;;;;4.21;100.00;147112.19;5070887;28;20192;-61
2023/01/25 10:12:45;;;;;;;6.50;6.10;;;;;;;4.29;100.00;147132.28;5070350;28;20521;-62
2023/01/25 10:15:20;;;;;;;7.10;6.40;;;;;;;4.17;100.00;147100.88;5070749;28;20192;-61
2023/01/25 10:17:57;;;;;;;6.53;5.90;;;;;;;4.25;100.00;147120.97;5070519;28;20185;-62
2023/01/25 10:20:34;;;;;;;6.47;6.03;;;;;;;4.04;100.00;147069.44;5068544;28;20692;-63
2023/01/25 10:23:22;;;;;;;6.00;5.60;;;;;;;4.10;100.00;147085.81;5055129;28;20217;-62
2023/01/25 10:25:56;;;;;;;6.80;6.27;;;;;;;4.07;100.00;147078.22;5050850;28;20193;-61
2023/01/25 10:28:40;;;;;;;6.83;6.40;;;;;;;4.08;100.00;147079.50;5070176;28;20204;-61
2023/01/25 10:31:17;;;;;;;5.80;5.47;;;;;;;3.91;100.00;147036.75;5070925;28;20208;-61
2023/01/25 10:33:46;;;;;;;6.93;6.33;;;;;;;4.19;100.00;147107.19;5074501;28;20196;-64
2023/01/25 10:36:16;;;;;;;8.40;5.90;;;;;;;4.38;100.00;147154.94;5074223;28;20610;-61
2023/01/25 10:38:45;;;;;;;5.63;5.17;;;;;;;4.20;100.00;147108.44;5074047;28;20292;-62
2023/01/25 10:41:19;;;;;;;6.00;5.70;;;;;;;4.21;100.00;147110.91;5074793;28;20600;-62
2023/01/25 10:44:20;;;;;;;8.50;6.50;;;;;;;4.36;100.00;147148.69;5074047;28;20204;-62
2023/01/25 10:46:35;;;;;;;5.77;5.33;;;;;;;4.51;100.00;147186.38;5073834;28;20201;-62
2023/01/25 10:49:13;;;;;;;10.53;5.70;;;;;;;4.53;100.00;147191.44;5073856;28;20203;-61
2023/01/25 10:51:42;;;;;;;5.90;5.60;;;;;;;4.34;100.00;147143.63;5070986;28;20567;-61
2023/01/25 10:54:15;;;;;;;5.53;5.23;;;;;;;4.30;100.00;147133.56;5073979;28;20185;-62
2023/01/25 10:56:45;;;;;;;5.50;5.13;;;;;;;4.08;100.00;147079.50;5073900;28;20189;-61
2023/01/25 10:59:23;;;;;;;5.70;5.40;;;;;;;3.91;100.00;147038.00;5074581;28;20749;-61
2023/01/25 11:01:50;;;;;;;6.17;5.67;;;;;;;4.23;100.00;147115.97;5073650;28;20633;-62
2023/01/25 11:04:33;;;;;;;7.23;5.23;;;;;;;4.30;100.00;147133.56;5073636;28;20209;-61
2023/01/25 11:07:04;;;;;;;6.13;5.63;;;;;;;4.30;100.00;147134.81;5073812;28;20536;-61
2023/01/25 11:09:37;;;;;;;4.83;4.53;;;;;;;4.16;100.00;147098.38;5073825;28;20184;-62
2023/01/25 11:12:15;;;;;;;6.87;6.40;;;;;;;4.19;100.00;147107.19;5073925;28;20204;-60
2023/01/25 11:14:50;;;;;;;6.13;5.53;;;;;;;4.35;100.00;147147.41;5074003;28;20177;-63
2023/01/25 11:17:25;;;;;;;5.53;5.30;;;;;;;4.32;100.00;147139.88;5072227;28;20234;-61
2023/01/25 11:20:16;;;;;;;5.77;5.47;;;;;;;4.29;100.00;147131.03;5073475;28;20639;-62
2023/01/25 11:22:52;;;;;;;5.70;5.30;;;;;;;4.14;100.00;147095.84;5055870;28;20616;-61
2023/01/25 11:25:28;;;;;;;6.30;5.90;;;;;;;4.28;100.00;147129.81;5067079;28;20200;-62
2023/01/25 11:28:16;;;;;;;6.00;5.70;;;;;;;4.29;100.00;147132.28;5069874;28;20563;-61
2023/01/25 11:30:43;;;;;;;5.50;5.17;;;;;;;4.23;100.00;147117.25;5073083;28;20187;-61
2023/01/25 11:33:12;;;;;;;6.53;6.13;;;;;;;4.41;100.00;147162.47;5073185;28;20197;-62